createdAt,value
2023-10-13T00:01:04.254Z,16.67
2023-10-13T00:06:03.505Z,16.76
2023-10-13T00:11:00.841Z,16.74
2023-10-13T00:16:00.436Z,16.72
2023-10-13T00:20:57.300Z,16.50
2023-10-13T00:26:00.265Z,16.40
2023-10-13T00:31:01.483Z,16.29
2023-10-13T00:35:58.778Z,16.22
2023-10-13T00:40:56.089Z,16.22
2023-10-13T00:45:57.588Z,16.52
2023-10-13T00:50:57.092Z,16.53
2023-10-13T00:55:56.229Z,16.53
2023-10-13T01:00:57.518Z,16.28
2023-10-13T01:05:56.176Z,16.13
2023-10-13T01:10:54.089Z,16.04
2023-10-13T01:15:50.803Z,16.02
2023-10-13T01:20:52.775Z,15.94
2023-10-13T01:25:50.194Z,15.79
2023-10-13T01:30:50.386Z,15.75
2023-10-13T01:35:48.096Z,16.02
2023-10-13T01:40:44.689Z,15.97
2023-10-13T01:45:47.710Z,15.79
2023-10-13T01:50:48.074Z,15.81
2023-10-13T01:55:44.970Z,15.79
2023-10-13T02:00:43.489Z,15.54
2023-10-13T02:05:40.410Z,15.73
2023-10-13T02:10:43.699Z,15.60
2023-10-13T02:15:43.142Z,15.86
2023-10-13T02:20:46.331Z,15.77
2023-10-13T02:25:46.469Z,15.65
2023-10-13T02:30:45.328Z,15.88
2023-10-13T02:35:43.588Z,16.02
2023-10-13T02:40:40.165Z,15.92
2023-10-13T02:45:37.484Z,15.95
2023-10-13T02:50:34.069Z,15.76
2023-10-13T02:55:32.504Z,15.52
2023-10-13T03:00:32.354Z,15.48
2023-10-13T03:05:35.991Z,15.31
2023-10-13T03:10:33.541Z,15.05
2023-10-13T03:15:31.989Z,15.06
2023-10-13T03:20:32.035Z,15.18
2023-10-13T03:25:42.916Z,15.16
2023-10-13T03:30:42.333Z,14.96
2023-10-13T03:35:41.200Z,14.99
2023-10-13T03:40:38.568Z,14.68
2023-10-13T03:45:40.160Z,14.88
2023-10-13T03:50:46.447Z,14.78
2023-10-13T03:55:48.532Z,14.82
2023-10-13T04:00:45.277Z,14.68
2023-10-13T04:05:46.667Z,14.38
2023-10-13T04:11:01.362Z,14.43
2023-10-13T04:16:15.369Z,14.54
2023-10-13T04:21:32.904Z,14.71
2023-10-13T04:26:49.441Z,14.57
2023-10-13T04:31:56.646Z,14.60
2023-10-13T04:37:11.584Z,14.42
2023-10-13T04:42:27.105Z,14.56
2023-10-13T04:47:23.781Z,14.67
2023-10-13T04:52:51.443Z,14.43
2023-10-13T04:57:50.610Z,14.52
2023-10-13T05:03:23.277Z,14.45
2023-10-13T05:08:40.909Z,14.60
2023-10-13T05:13:57.163Z,14.62
2023-10-13T05:19:11.806Z,14.21
2023-10-13T05:24:27.432Z,14.36
2023-10-13T05:29:41.838Z,14.67
2023-10-13T05:34:58.725Z,14.75
2023-10-13T05:40:17.386Z,14.84
2023-10-13T05:45:54.602Z,14.93
2023-10-13T05:51:11.172Z,15.11
2023-10-13T05:56:26.818Z,15.18
2023-10-13T06:01:41.777Z,15.52
2023-10-13T06:06:59.646Z,15.73
2023-10-13T06:12:17.211Z,15.87
2023-10-13T06:17:31.976Z,16.13
2023-10-13T06:22:46.795Z,16.20
2023-10-13T06:28:02.330Z,15.99
2023-10-13T06:32:59.064Z,16.06
2023-10-13T06:38:00.712Z,16.46
2023-10-13T06:43:12.297Z,16.80
2023-10-13T06:48:12.992Z,16.82
2023-10-13T06:53:12.858Z,16.86
2023-10-13T06:58:14.043Z,16.99
2023-10-13T07:03:18.232Z,16.97
2023-10-13T07:08:20.106Z,17.39
2023-10-13T07:13:17.790Z,17.50
2023-10-13T07:18:17.117Z,17.75
2023-10-13T07:23:30.988Z,18.10
2023-10-13T07:28:32.138Z,18.35
2023-10-13T07:33:31.741Z,18.25
2023-10-13T07:38:31.505Z,18.66
2023-10-13T07:43:35.544Z,18.77
2023-10-13T07:48:39.313Z,18.69
2023-10-13T07:53:39.766Z,18.74
2023-10-13T07:59:05.536Z,18.67
2023-10-13T08:04:18.165Z,18.67
2023-10-13T08:09:31.012Z,18.94
2023-10-13T08:14:39.113Z,19.04
2023-10-13T08:19:45.230Z,19.24
2023-10-13T08:24:59.722Z,19.42
2023-10-13T08:30:20.950Z,19.58
2023-10-13T08:35:36.884Z,19.84
2023-10-13T08:41:00.186Z,19.95
2023-10-13T08:46:56.780Z,20.12
2023-10-13T08:53:17.753Z,20.30
2023-10-13T09:04:56.484Z,20.71
2023-10-13T09:10:35.645Z,20.84
2023-10-13T09:16:25.654Z,21.02
2023-10-13T09:21:55.857Z,21.22
2023-10-13T09:27:06.380Z,21.43
2023-10-13T09:32:24.551Z,21.35
2023-10-13T09:37:30.965Z,21.53
2023-10-13T09:42:29.380Z,21.35
2023-10-13T09:47:35.192Z,21.38
2023-10-13T09:52:46.461Z,21.42
2023-10-13T09:58:01.189Z,21.48
2023-10-13T10:03:15.627Z,21.48
2023-10-13T10:08:59.049Z,21.55
2023-10-13T10:14:13.916Z,21.66
2023-10-13T10:19:17.646Z,21.76
2023-10-13T10:30:15.895Z,22.18
2023-10-13T10:35:30.603Z,22.31
2023-10-13T10:40:44.796Z,22.34
2023-10-13T10:46:00.192Z,22.45
2023-10-13T10:51:15.933Z,22.50
2023-10-13T10:56:37.299Z,22.68
2023-10-13T11:01:59.854Z,22.68
2023-10-13T11:07:00.520Z,22.73
2023-10-13T11:12:15.480Z,22.87
2023-10-13T11:17:25.158Z,23.04
2023-10-13T11:22:54.292Z,23.01
2023-10-13T11:33:32.479Z,23.16
2023-10-13T11:38:45.243Z,23.19
2023-10-13T11:44:20.013Z,23.31
2023-10-13T11:49:33.066Z,23.17
2023-10-13T11:54:34.875Z,23.42
2023-10-13T11:59:41.442Z,23.37
2023-10-13T12:04:49.578Z,23.51
2023-10-13T12:10:22.247Z,23.47
2023-10-13T12:15:41.922Z,23.29
2023-10-13T12:20:58.138Z,23.37
2023-10-13T12:26:00.443Z,23.38
2023-10-13T12:31:06.271Z,23.40
2023-10-13T12:36:23.101Z,23.35
2023-10-13T12:41:57.294Z,23.22
2023-10-13T12:47:24.971Z,23.18
2023-10-13T12:52:28.453Z,23.17
2023-10-13T12:57:33.424Z,23.21
2023-10-13T13:02:51.774Z,23.28
2023-10-13T13:07:55.388Z,23.33
2023-10-13T13:13:07.768Z,23.37
2023-10-13T13:18:16.041Z,23.50
2023-10-13T13:23:20.915Z,23.48
2023-10-13T13:28:18.816Z,23.40
2023-10-13T13:33:35.791Z,23.37
2023-10-13T13:38:41.850Z,23.31
2023-10-13T13:43:46.119Z,23.41
2023-10-13T13:48:59.900Z,23.47
2023-10-13T13:54:02.119Z,23.40
2023-10-13T13:59:10.409Z,23.38
2023-10-13T14:04:23.987Z,23.33
2023-10-13T14:09:43.874Z,23.22
2023-10-13T14:14:51.871Z,23.23
2023-10-13T14:20:00.060Z,23.26
2023-10-13T14:25:09.362Z,23.29
2023-10-13T14:30:10.419Z,23.34
2023-10-13T14:35:24.639Z,23.26
2023-10-13T14:40:23.205Z,23.19
2023-10-13T14:45:23.293Z,23.15
2023-10-13T14:50:25.268Z,23.17
2023-10-13T14:55:40.151Z,23.06
2023-10-13T15:00:37.218Z,23.07
2023-10-13T15:05:36.242Z,23.04
2023-10-13T15:10:33.965Z,22.99
2023-10-13T15:15:32.820Z,22.94
2023-10-13T15:20:29.699Z,22.89
2023-10-13T15:25:29.550Z,22.84
2023-10-13T15:30:31.578Z,22.81
2023-10-13T15:35:35.049Z,22.69
2023-10-13T15:40:31.905Z,22.65
2023-10-13T15:45:41.154Z,22.71
2023-10-13T15:50:42.046Z,23.02
2023-10-13T15:55:39.449Z,22.92
2023-10-13T16:00:37.760Z,22.74
2023-10-13T16:05:35.228Z,22.94
2023-10-13T16:10:32.124Z,22.78
2023-10-13T16:15:29.000Z,22.64
2023-10-13T16:20:28.357Z,22.66
2023-10-13T16:25:25.325Z,22.69
2023-10-13T16:30:22.267Z,22.69
2023-10-13T16:35:20.921Z,22.68
2023-10-13T16:40:19.204Z,22.60
2023-10-13T16:45:21.225Z,22.56
2023-10-13T16:50:18.353Z,22.44
2023-10-13T16:55:18.180Z,22.23
2023-10-13T17:00:16.265Z,22.18
2023-10-13T17:05:14.778Z,22.30
2023-10-13T17:10:14.649Z,22.20
2023-10-13T17:15:19.801Z,22.26
2023-10-13T17:20:18.417Z,22.04
2023-10-13T17:25:16.480Z,21.90
2023-10-13T17:30:13.345Z,22.08
2023-10-13T17:35:12.415Z,22.03
2023-10-13T17:40:16.200Z,21.98
2023-10-13T17:45:14.367Z,21.86
2023-10-13T17:50:14.056Z,21.81
2023-10-13T17:55:11.463Z,21.70
2023-10-13T18:00:14.561Z,21.83
2023-10-13T18:05:11.752Z,21.79
2023-10-13T18:10:10.413Z,21.94
2023-10-13T18:15:10.009Z,22.00
2023-10-13T18:20:10.718Z,22.03
2023-10-13T18:25:12.589Z,21.95
2023-10-13T18:30:16.159Z,21.94
2023-10-13T18:35:12.980Z,21.86
2023-10-13T18:40:12.545Z,22.00
2023-10-13T18:45:13.147Z,22.01
2023-10-13T18:50:11.553Z,21.99
2023-10-13T18:55:08.716Z,21.82
2023-10-13T19:00:15.039Z,21.78
2023-10-13T19:05:12.510Z,21.79
2023-10-13T19:10:15.378Z,21.86
2023-10-13T19:15:13.494Z,21.79
2023-10-13T19:20:16.563Z,21.81
2023-10-13T19:25:14.183Z,21.76
2023-10-13T19:30:11.110Z,21.70
2023-10-13T19:35:08.243Z,21.72
2023-10-13T19:40:09.352Z,21.65
2023-10-13T19:45:13.008Z,21.64
2023-10-13T19:50:13.410Z,21.49
2023-10-13T19:55:16.186Z,21.62
2023-10-13T20:00:22.687Z,21.60
2023-10-13T20:05:20.825Z,21.57
2023-10-13T20:10:17.492Z,21.43
2023-10-13T20:15:15.535Z,21.43
2023-10-13T20:20:16.912Z,21.17
2023-10-13T20:25:15.276Z,20.83
2023-10-13T20:30:12.642Z,20.93
2023-10-13T20:35:09.328Z,20.78
2023-10-13T20:40:18.585Z,20.99
2023-10-13T20:45:18.170Z,21.06
2023-10-13T20:50:15.273Z,20.86
2023-10-13T20:55:17.222Z,20.97
2023-10-13T21:00:21.351Z,21.03
2023-10-13T21:05:21.753Z,21.11
2023-10-13T21:10:19.339Z,21.08
2023-10-13T21:15:17.509Z,21.06
2023-10-13T21:20:15.079Z,21.03
2023-10-13T21:25:19.805Z,20.91
2023-10-13T21:30:20.389Z,20.96
2023-10-13T21:35:17.746Z,21.03
2023-10-13T21:40:19.952Z,21.08
2023-10-13T21:45:17.275Z,20.75
2023-10-13T21:50:17.131Z,19.97
2023-10-13T21:55:16.988Z,19.74
2023-10-13T22:00:32.981Z,19.66
2023-10-13T22:05:31.174Z,19.03
2023-10-13T22:10:27.795Z,19.05
2023-10-13T22:15:28.507Z,19.26
2023-10-13T22:20:25.174Z,19.35
2023-10-13T22:25:22.562Z,19.37
2023-10-13T22:30:19.492Z,19.72
2023-10-13T22:35:18.972Z,19.23
2023-10-13T22:40:17.363Z,19.37
2023-10-13T22:45:18.604Z,19.22
2023-10-13T22:50:18.564Z,19.27
2023-10-13T22:55:21.122Z,19.49
2023-10-13T23:00:19.028Z,19.79
2023-10-13T23:05:50.968Z,19.93
2023-10-13T23:10:47.535Z,20.03
2023-10-13T23:15:45.097Z,20.06
2023-10-13T23:20:43.070Z,20.21
2023-10-13T23:25:40.238Z,20.25
2023-10-13T23:30:37.554Z,20.09
2023-10-13T23:35:34.967Z,20.08
2023-10-13T23:40:33.833Z,20.07
2023-10-13T23:45:41.517Z,19.96
2023-10-13T23:50:50.116Z,19.89
2023-10-13T23:55:47.307Z,19.78
